createdAt,value
2023-02-05T00:01:01.501Z,9.05
2023-02-05T00:03:03.280Z,7.70
2023-02-05T00:05:05.249Z,8.02
2023-02-05T00:07:07.176Z,7.28
2023-02-05T00:09:08.948Z,6.97
2023-02-05T00:11:10.616Z,7.15
2023-02-05T00:13:12.268Z,7.30
2023-02-05T00:15:13.924Z,7.57
2023-02-05T00:17:15.557Z,7.50
2023-02-05T00:19:17.291Z,8.93
2023-02-05T00:21:20.133Z,9.13
2023-02-05T00:23:21.795Z,8.40
2023-02-05T00:25:23.489Z,9.63
2023-02-05T00:27:25.229Z,8.18
2023-02-05T00:29:26.845Z,8.93
2023-02-05T00:31:28.610Z,7.50
2023-02-05T00:33:30.366Z,7.95
2023-02-05T00:35:32.476Z,7.93
2023-02-05T00:37:34.416Z,6.80
2023-02-05T00:39:36.016Z,6.68
2023-02-05T00:41:38.260Z,7.70
2023-02-05T00:43:40.797Z,7.22
2023-02-05T00:45:42.403Z,7.15
2023-02-05T00:47:44.100Z,5.68
2023-02-05T00:49:45.691Z,7.28
2023-02-05T00:51:47.389Z,5.88
2023-02-05T00:53:49.042Z,7.63
2023-02-05T00:55:51.113Z,7.15
2023-02-05T00:57:52.796Z,6.25
2023-02-05T00:59:54.491Z,6.78
2023-02-05T01:01:56.148Z,6.78
2023-02-05T01:03:57.846Z,5.60
2023-02-05T01:05:59.556Z,5.75
2023-02-05T01:08:01.421Z,6.47
2023-02-05T01:10:03.864Z,5.53
2023-02-05T01:12:05.741Z,4.47
2023-02-05T01:14:07.437Z,6.13
2023-02-05T01:16:10.664Z,4.95
2023-02-05T01:18:12.566Z,6.05
2023-02-05T01:20:15.145Z,5.32
2023-02-05T01:22:16.818Z,4.88
2023-02-05T01:24:18.475Z,5.35
2023-02-05T01:26:20.106Z,4.07
2023-02-05T01:28:21.761Z,5.32
2023-02-05T01:30:23.655Z,4.68
2023-02-05T01:32:25.381Z,5.03
2023-02-05T01:34:27.013Z,6.10
2023-02-05T01:36:28.627Z,4.88
2023-02-05T01:38:30.300Z,6.07
2023-02-05T01:40:31.913Z,4.85
2023-02-05T01:42:34.024Z,5.65
2023-02-05T01:44:36.827Z,4.85
2023-02-05T01:46:41.115Z,5.38
2023-02-05T01:48:45.678Z,4.35
2023-02-05T01:50:55.852Z,4.05
2023-02-05T01:52:59.125Z,5.47
2023-02-05T01:55:02.407Z,5.05
2023-02-05T01:57:08.173Z,3.95
2023-02-05T01:59:16.869Z,7.82
2023-02-05T02:01:18.625Z,5.97
2023-02-05T02:03:21.390Z,4.55
2023-02-05T02:05:23.063Z,4.70
2023-02-05T02:07:25.174Z,4.97
2023-02-05T02:09:26.749Z,5.03
2023-02-05T02:11:29.733Z,4.13
2023-02-05T02:13:33.407Z,4.85
2023-02-05T02:15:35.431Z,4.80
2023-02-05T02:17:40.633Z,3.90
2023-02-05T02:19:45.748Z,5.80
2023-02-05T02:21:53.461Z,6.82
2023-02-05T02:24:27.045Z,6.85
2023-02-05T02:26:56.136Z,7.20
2023-02-05T02:29:02.899Z,6.40
2023-02-05T02:31:09.888Z,6.72
2023-02-05T02:33:14.198Z,6.95
2023-02-05T02:35:41.556Z,5.93
2023-02-05T02:37:59.962Z,5.00
2023-02-05T02:40:10.299Z,6.53
2023-02-05T02:42:24.765Z,7.13
2023-02-05T02:44:35.100Z,7.15
2023-02-05T02:46:48.915Z,5.85
2023-02-05T02:48:53.020Z,6.45
2023-02-05T02:50:56.784Z,5.38
2023-02-05T02:53:02.836Z,6.47
2023-02-05T02:55:09.586Z,6.72
2023-02-05T02:57:12.157Z,5.65
2023-02-05T02:59:19.009Z,5.13
2023-02-05T03:01:24.366Z,5.65
2023-02-05T03:03:27.136Z,5.60
2023-02-05T03:05:29.639Z,5.93
2023-02-05T03:07:38.068Z,5.82
2023-02-05T03:09:44.610Z,7.00
2023-02-05T03:11:46.213Z,5.50
2023-02-05T03:13:48.424Z,5.40
2023-02-05T03:15:50.338Z,5.90
2023-02-05T03:17:53.619Z,5.53
2023-02-05T03:20:04.135Z,6.35
2023-02-05T03:22:06.368Z,10.13
2023-02-05T03:24:08.554Z,8.77
2023-02-05T03:26:35.149Z,7.88
2023-02-05T03:28:36.881Z,7.63
2023-02-05T03:30:55.663Z,7.63
2023-02-05T03:33:24.664Z,6.75
2023-02-05T03:35:46.697Z,6.15
2023-02-05T03:38:09.025Z,5.10
2023-02-05T03:40:19.809Z,4.80
2023-02-05T03:42:30.694Z,5.45
2023-02-05T03:44:45.202Z,5.97
2023-02-05T03:47:02.950Z,5.78
2023-02-05T03:49:18.874Z,4.13
2023-02-05T03:51:39.232Z,5.22
2023-02-05T03:53:49.908Z,5.57
2023-02-05T03:56:01.994Z,5.00
2023-02-05T03:58:11.903Z,5.63
2023-02-05T04:00:14.362Z,4.78
2023-02-05T04:02:17.041Z,5.45
2023-02-05T04:04:18.847Z,5.65
2023-02-05T04:06:21.512Z,5.18
2023-02-05T04:08:23.222Z,4.60
2023-02-05T04:10:24.835Z,3.97
2023-02-05T04:12:26.535Z,4.15
2023-02-05T04:14:28.146Z,4.38
2023-02-05T04:16:29.849Z,5.60
2023-02-05T04:18:31.564Z,5.20
2023-02-05T04:20:33.246Z,3.95
2023-02-05T04:22:34.910Z,4.05
2023-02-05T04:24:36.507Z,4.97
2023-02-05T04:26:38.148Z,4.90
2023-02-05T04:28:39.808Z,4.05
2023-02-05T04:30:41.433Z,4.15
2023-02-05T04:32:43.317Z,4.80
2023-02-05T04:34:44.966Z,5.97
2023-02-05T04:36:46.764Z,6.10
2023-02-05T04:38:48.409Z,6.47
2023-02-05T04:40:50.848Z,4.95
2023-02-05T04:42:52.539Z,6.43
2023-02-05T04:44:54.541Z,6.88
2023-02-05T04:46:56.160Z,7.85
2023-02-05T04:48:57.813Z,6.13
2023-02-05T04:50:59.457Z,7.68
2023-02-05T04:53:03.879Z,7.93
2023-02-05T04:55:05.993Z,8.48
2023-02-05T04:57:07.646Z,6.30
2023-02-05T04:59:09.370Z,6.47
2023-02-05T05:01:13.602Z,6.35
2023-02-05T05:03:15.384Z,6.43
2023-02-05T05:05:17.190Z,7.28
2023-02-05T05:07:18.847Z,6.63
2023-02-05T05:09:24.170Z,6.03
2023-02-05T05:11:25.991Z,5.65
2023-02-05T05:13:27.712Z,5.50
2023-02-05T05:15:29.314Z,6.95
2023-02-05T05:17:31.065Z,6.78
2023-02-05T05:19:32.699Z,6.18
2023-02-05T05:21:34.355Z,5.68
2023-02-05T05:23:37.038Z,6.32
2023-02-05T05:25:46.417Z,6.35
2023-02-05T05:27:48.493Z,6.63
2023-02-05T05:29:50.837Z,6.32
2023-02-05T05:31:53.559Z,7.13
2023-02-05T05:33:55.248Z,6.30
2023-02-05T05:35:56.853Z,6.28
2023-02-05T05:37:58.838Z,6.93
2023-02-05T05:40:19.362Z,5.82
2023-02-05T05:42:39.734Z,6.47
2023-02-05T05:44:41.366Z,7.10
2023-02-05T05:46:42.996Z,7.07
2023-02-05T05:48:44.646Z,6.13
2023-02-05T05:50:46.698Z,7.07
2023-02-05T05:52:48.332Z,7.40
2023-02-05T05:54:49.977Z,7.25
2023-02-05T05:56:51.613Z,6.25
2023-02-05T05:58:53.386Z,6.97
2023-02-05T06:00:55.153Z,7.38
2023-02-05T06:02:56.802Z,6.82
2023-02-05T06:04:58.596Z,8.07
2023-02-05T06:07:00.392Z,8.13
2023-02-05T06:09:02.105Z,7.65
2023-02-05T06:11:03.985Z,7.50
2023-02-05T06:13:08.386Z,9.50
2023-02-05T06:15:10.353Z,6.13
2023-02-05T06:17:11.977Z,7.43
2023-02-05T06:19:13.684Z,7.93
2023-02-05T06:21:15.433Z,8.63
2023-02-05T06:23:17.109Z,8.77
2023-02-05T06:25:19.132Z,6.45
2023-02-05T06:27:20.743Z,8.40
2023-02-05T06:29:22.372Z,7.88
2023-02-05T06:31:24.372Z,7.28
2023-02-05T06:33:29.316Z,7.93
2023-02-05T06:35:32.218Z,7.32
2023-02-05T06:37:46.578Z,7.55
2023-02-05T06:39:48.994Z,7.07
2023-02-05T06:41:50.683Z,8.77
2023-02-05T06:43:52.392Z,8.55
2023-02-05T06:45:55.714Z,7.88
2023-02-05T06:47:58.283Z,8.60
2023-02-05T06:49:59.948Z,5.97
2023-02-05T06:52:01.673Z,9.07
2023-02-05T06:54:03.333Z,6.60
2023-02-05T06:56:05.551Z,7.68
2023-02-05T06:58:07.975Z,8.25
2023-02-05T07:00:10.327Z,7.18
2023-02-05T07:02:13.708Z,7.47
2023-02-05T07:04:15.442Z,8.35
2023-02-05T07:06:17.321Z,7.75
2023-02-05T07:08:19.058Z,7.40
2023-02-05T07:10:20.800Z,7.35
2023-02-05T07:12:22.501Z,7.93
2023-02-05T07:14:24.349Z,6.60
2023-02-05T07:16:26.022Z,8.73
2023-02-05T07:18:27.645Z,7.15
2023-02-05T07:20:29.297Z,8.35
2023-02-05T07:22:31.051Z,8.18
2023-02-05T07:24:32.857Z,8.50
2023-02-05T07:26:35.939Z,8.50
2023-02-05T07:28:38.057Z,7.43
2023-02-05T07:30:39.860Z,7.95
2023-02-05T07:32:41.504Z,8.13
2023-02-05T07:34:43.993Z,8.60
2023-02-05T07:36:45.793Z,6.68
2023-02-05T07:38:48.060Z,8.85
2023-02-05T07:40:49.666Z,8.23
2023-02-05T07:42:51.306Z,7.45
2023-02-05T07:44:52.976Z,9.65
2023-02-05T07:46:54.735Z,8.23
2023-02-05T07:48:56.496Z,8.68
2023-02-05T07:50:58.169Z,8.82
2023-02-05T07:52:59.852Z,8.50
2023-02-05T07:55:01.593Z,7.47
2023-02-05T07:57:04.921Z,9.15
2023-02-05T07:59:08.994Z,7.55
2023-02-05T08:01:10.704Z,8.18
2023-02-05T08:03:12.766Z,8.18
2023-02-05T08:05:14.557Z,8.88
2023-02-05T08:07:16.229Z,8.75
2023-02-05T08:09:17.900Z,7.47
2023-02-05T08:11:19.835Z,7.75
2023-02-05T08:13:21.513Z,8.35
2023-02-05T08:15:23.174Z,7.18
2023-02-05T08:17:24.764Z,8.77
2023-02-05T08:19:26.454Z,7.38
2023-02-05T08:21:28.078Z,8.18
2023-02-05T08:23:29.815Z,8.40
2023-02-05T08:25:31.633Z,7.03
2023-02-05T08:27:34.875Z,6.88
2023-02-05T08:29:36.550Z,7.15
2023-02-05T08:31:38.864Z,7.10
2023-02-05T08:33:40.608Z,7.45
2023-02-05T08:35:42.208Z,6.90
2023-02-05T08:37:43.892Z,8.82
2023-02-05T08:39:46.486Z,8.20
2023-02-05T08:41:48.054Z,7.78
2023-02-05T08:43:50.674Z,8.40
2023-02-05T08:45:52.303Z,6.88
2023-02-05T08:47:54.169Z,8.05
2023-02-05T08:49:55.873Z,8.07
2023-02-05T08:51:58.275Z,8.15
2023-02-05T08:53:59.940Z,7.85
2023-02-05T08:56:03.366Z,9.23
2023-02-05T08:58:05.005Z,10.73
2023-02-05T09:00:07.711Z,10.93
2023-02-05T09:02:14.984Z,9.30
2023-02-05T09:04:18.113Z,10.70
2023-02-05T09:06:19.898Z,12.40
2023-02-05T09:08:21.938Z,12.65
2023-02-05T09:10:23.686Z,13.15
2023-02-05T09:12:25.295Z,11.35
2023-02-05T09:14:27.545Z,9.95
2023-02-05T09:16:29.203Z,10.23
2023-02-05T09:18:31.069Z,10.20
2023-02-05T09:20:32.718Z,9.85
2023-02-05T09:22:34.366Z,9.18
2023-02-05T09:24:37.801Z,10.07
2023-02-05T09:26:39.427Z,9.40
2023-02-05T09:28:41.100Z,10.55
2023-02-05T09:30:45.031Z,11.57
2023-02-05T09:32:47.923Z,10.15
2023-02-05T09:34:49.626Z,10.77
2023-02-05T09:36:51.274Z,10.02
2023-02-05T09:39:11.889Z,10.52
2023-02-05T09:41:15.330Z,8.65
2023-02-05T09:43:35.171Z,9.57
2023-02-05T09:45:47.154Z,9.88
2023-02-05T09:48:14.768Z,9.07
2023-02-05T09:50:27.603Z,10.25
2023-02-05T09:52:38.089Z,10.93
2023-02-05T09:54:43.217Z,10.55
2023-02-05T09:56:45.368Z,9.90
2023-02-05T09:58:49.621Z,9.07
2023-02-05T10:01:16.866Z,10.73
2023-02-05T10:03:47.158Z,9.32
2023-02-05T10:06:33.492Z,8.55
2023-02-05T10:09:07.265Z,9.30
2023-02-05T10:11:18.298Z,9.52
2023-02-05T10:13:26.168Z,10.02
2023-02-05T10:15:52.413Z,11.25
2023-02-05T10:18:12.483Z,9.93
2023-02-05T10:20:56.564Z,10.02
2023-02-05T10:23:16.909Z,9.63
2023-02-05T10:25:36.731Z,11.10
2023-02-05T10:28:09.652Z,13.55
2023-02-05T10:30:57.179Z,13.05
2023-02-05T10:33:17.045Z,13.25
2023-02-05T10:35:44.410Z,13.68
2023-02-05T10:37:51.470Z,13.25
2023-02-05T10:39:56.217Z,13.02
2023-02-05T10:42:29.783Z,13.45
2023-02-05T10:44:42.582Z,11.52
2023-02-05T10:46:53.207Z,10.57
2023-02-05T10:48:59.542Z,9.35
2023-02-05T10:51:03.828Z,7.57
2023-02-05T10:53:05.513Z,7.65
2023-02-05T10:55:12.141Z,8.65
2023-02-05T10:57:22.222Z,7.97
2023-02-05T10:59:27.974Z,8.80
2023-02-05T11:01:33.150Z,9.05
2023-02-05T11:03:35.841Z,7.85
2023-02-05T11:05:40.783Z,8.48
2023-02-05T11:07:46.302Z,9.45
2023-02-05T11:09:47.958Z,9.10
2023-02-05T11:11:53.010Z,8.30
2023-02-05T11:13:58.047Z,9.65
2023-02-05T11:16:08.803Z,9.45
2023-02-05T11:18:23.750Z,10.00
2023-02-05T11:20:29.351Z,8.55
2023-02-05T11:22:35.168Z,8.60
2023-02-05T11:24:39.531Z,10.70
2023-02-05T11:26:41.162Z,9.85
2023-02-05T11:28:42.850Z,9.07
2023-02-05T11:30:52.632Z,10.20
2023-02-05T11:32:54.746Z,10.10
2023-02-05T11:35:28.843Z,10.52
2023-02-05T11:37:30.498Z,8.82
2023-02-05T11:39:36.808Z,10.77
2023-02-05T11:41:48.931Z,9.40
2023-02-05T11:43:51.651Z,9.57
2023-02-05T11:45:55.616Z,8.98
2023-02-05T11:47:58.141Z,10.40
2023-02-05T11:50:00.276Z,8.90
2023-02-05T11:52:08.998Z,11.20
2023-02-05T11:54:16.856Z,8.75
2023-02-05T11:56:22.844Z,9.40
2023-02-05T11:58:36.646Z,8.75
2023-02-05T12:00:50.935Z,8.75
2023-02-05T12:03:06.699Z,8.82
2023-02-05T12:05:19.466Z,7.82
2023-02-05T12:07:22.137Z,8.20
2023-02-05T12:09:25.765Z,8.73
2023-02-05T12:11:56.806Z,8.18
2023-02-05T12:14:31.127Z,7.93
2023-02-05T12:16:46.348Z,7.78
2023-02-05T12:19:17.332Z,6.32
2023-02-05T12:21:28.052Z,5.03
2023-02-05T12:23:58.793Z,3.80
2023-02-05T12:26:02.994Z,2.45
2023-02-05T12:28:42.072Z,2.00
2023-02-05T12:30:58.051Z,2.33
2023-02-05T12:33:24.366Z,1.83
2023-02-05T12:35:33.589Z,1.13
2023-02-05T12:37:47.165Z,1.60
2023-02-05T12:40:05.013Z,2.08
2023-02-05T12:42:29.058Z,1.20
2023-02-05T12:44:39.496Z,1.10
2023-02-05T12:47:06.788Z,1.75
2023-02-05T12:49:29.790Z,2.22
2023-02-05T12:51:37.619Z,1.48
2023-02-05T12:53:57.680Z,2.00
2023-02-05T12:56:14.068Z,1.42
2023-02-05T12:58:16.765Z,1.40
2023-02-05T13:00:33.459Z,1.23
2023-02-05T13:03:01.916Z,1.60
2023-02-05T13:05:22.284Z,1.20
2023-02-05T13:07:59.355Z,1.27
2023-02-05T13:10:07.502Z,1.15
2023-02-05T13:12:12.363Z,1.25
2023-02-05T13:14:34.651Z,1.10
2023-02-05T13:16:41.491Z,1.27
2023-02-05T13:18:57.589Z,1.23
2023-02-05T13:21:22.983Z,1.27
2023-02-05T13:23:43.201Z,1.45
2023-02-05T13:26:07.375Z,1.17
2023-02-05T13:28:39.294Z,1.10
2023-02-05T13:30:47.265Z,1.00
2023-02-05T13:32:52.078Z,1.00
2023-02-05T13:34:56.644Z,0.70
2023-02-05T13:37:16.075Z,0.90
2023-02-05T13:39:34.597Z,0.82
2023-02-05T13:42:00.853Z,0.80
2023-02-05T13:44:15.442Z,1.00
2023-02-05T13:46:33.506Z,0.90
2023-02-05T13:48:49.952Z,1.17
2023-02-05T13:50:51.505Z,1.25
2023-02-05T13:52:53.122Z,1.40
2023-02-05T13:55:12.874Z,1.48
2023-02-05T13:57:44.926Z,1.10
2023-02-05T13:59:53.062Z,1.20
2023-02-05T14:01:58.075Z,0.90
2023-02-05T14:04:06.055Z,0.85
2023-02-05T14:06:24.264Z,1.02
2023-02-05T14:08:28.134Z,0.80
2023-02-05T14:10:32.359Z,1.17
2023-02-05T14:12:35.501Z,0.82
2023-02-05T14:14:42.343Z,0.90
2023-02-05T14:16:46.234Z,1.17
2023-02-05T14:18:51.452Z,0.90
2023-02-05T14:20:53.126Z,1.23
2023-02-05T14:22:57.833Z,1.00
2023-02-05T14:24:59.469Z,0.98
2023-02-05T14:27:01.178Z,1.40
2023-02-05T14:29:02.843Z,0.80
2023-02-05T14:31:07.376Z,0.77
2023-02-05T14:33:32.266Z,0.90
2023-02-05T14:35:40.184Z,0.90
2023-02-05T14:37:50.507Z,1.13
2023-02-05T14:39:52.281Z,1.00
2023-02-05T14:41:58.761Z,0.90
2023-02-05T14:44:03.313Z,1.00
2023-02-05T14:46:31.559Z,0.80
2023-02-05T14:48:35.984Z,0.98
2023-02-05T14:50:37.830Z,0.80
2023-02-05T14:52:45.290Z,0.80
2023-02-05T14:54:59.533Z,1.00
2023-02-05T14:57:26.305Z,0.80
2023-02-05T14:59:45.620Z,0.90
2023-02-05T15:01:54.347Z,0.75
2023-02-05T15:03:58.447Z,0.95
2023-02-05T15:06:04.626Z,1.10
2023-02-05T15:08:24.745Z,1.08
2023-02-05T15:10:29.390Z,0.90
2023-02-05T15:12:54.947Z,1.00
2023-02-05T15:14:57.651Z,0.93
2023-02-05T15:17:09.947Z,0.80
2023-02-05T15:19:12.544Z,0.85
2023-02-05T15:21:24.097Z,0.75
2023-02-05T15:23:38.173Z,0.70
2023-02-05T15:25:42.709Z,0.98
2023-02-05T15:27:47.997Z,0.90
2023-02-05T15:29:57.259Z,1.10
2023-02-05T15:32:02.910Z,0.90
2023-02-05T15:34:21.691Z,0.80
2023-02-05T15:36:31.758Z,0.70
2023-02-05T15:38:39.808Z,0.90
2023-02-05T15:40:41.848Z,1.08
2023-02-05T15:42:45.997Z,1.15
2023-02-05T15:44:50.362Z,1.08
2023-02-05T15:46:52.329Z,1.33
2023-02-05T15:48:55.179Z,0.80
2023-02-05T15:51:10.568Z,1.20
2023-02-05T15:53:38.331Z,1.33
2023-02-05T15:55:39.993Z,1.13
2023-02-05T15:57:41.658Z,1.30
2023-02-05T15:59:43.407Z,1.10
2023-02-05T16:02:18.809Z,0.70
2023-02-05T16:04:37.663Z,1.05
2023-02-05T16:06:39.236Z,1.40
2023-02-05T16:08:46.786Z,1.13
2023-02-05T16:10:54.426Z,1.33
2023-02-05T16:13:02.882Z,1.30
2023-02-05T16:15:07.006Z,1.10
2023-02-05T16:17:14.695Z,0.90
2023-02-05T16:19:23.610Z,1.15
2023-02-05T16:21:30.035Z,1.10
2023-02-05T16:23:36.583Z,1.25
2023-02-05T16:25:53.270Z,1.10
2023-02-05T16:27:55.977Z,1.15
2023-02-05T16:29:59.147Z,1.00
2023-02-05T16:32:06.477Z,1.30
2023-02-05T16:34:14.338Z,1.45
2023-02-05T16:36:22.557Z,1.42
2023-02-05T16:38:24.380Z,1.38
2023-02-05T16:40:43.107Z,0.90
2023-02-05T16:42:46.279Z,0.90
2023-02-05T16:44:48.977Z,1.00
2023-02-05T16:47:17.713Z,1.27
2023-02-05T16:49:28.286Z,1.30
2023-02-05T16:51:40.746Z,1.15
2023-02-05T16:53:49.788Z,1.55
2023-02-05T16:56:11.798Z,1.15
2023-02-05T16:58:22.724Z,1.20
2023-02-05T17:00:27.862Z,1.10
2023-02-05T17:02:33.891Z,1.27
2023-02-05T17:04:37.837Z,1.35
2023-02-05T17:06:39.526Z,1.13
2023-02-05T17:08:42.029Z,1.38
2023-02-05T17:10:52.856Z,1.50
2023-02-05T17:13:01.070Z,1.20
2023-02-05T17:15:14.097Z,1.45
2023-02-05T17:17:17.219Z,1.20
2023-02-05T17:19:25.948Z,1.45
2023-02-05T17:21:36.839Z,1.48
2023-02-05T17:23:38.571Z,1.23
2023-02-05T17:25:56.042Z,1.58
2023-02-05T17:27:57.700Z,1.63
2023-02-05T17:30:00.186Z,1.55
2023-02-05T17:32:03.873Z,1.80
2023-02-05T17:34:05.874Z,1.70
2023-02-05T17:36:18.766Z,1.40
2023-02-05T17:38:21.103Z,1.60
2023-02-05T17:40:22.741Z,1.30
2023-02-05T17:42:25.749Z,1.20
2023-02-05T17:44:27.586Z,1.20
2023-02-05T17:46:29.234Z,1.50
2023-02-05T17:48:30.845Z,1.25
2023-02-05T17:50:34.820Z,1.83
2023-02-05T17:52:36.691Z,1.48
2023-02-05T17:54:38.638Z,1.42
2023-02-05T17:56:42.099Z,1.50
2023-02-05T17:58:43.799Z,1.55
2023-02-05T18:00:45.400Z,1.50
2023-02-05T18:02:47.262Z,1.55
2023-02-05T18:04:48.910Z,1.58
2023-02-05T18:06:50.606Z,1.55
2023-02-05T18:08:52.288Z,1.38
2023-02-05T18:10:53.841Z,1.77
2023-02-05T18:12:58.088Z,2.22
2023-02-05T18:14:59.728Z,1.48
2023-02-05T18:17:01.554Z,1.20
2023-02-05T18:19:03.225Z,1.35
2023-02-05T18:21:06.107Z,1.35
2023-02-05T18:23:07.710Z,1.70
2023-02-05T18:25:10.046Z,1.33
2023-02-05T18:27:12.193Z,1.00
2023-02-05T18:29:14.005Z,1.60
2023-02-05T18:31:15.914Z,1.20
2023-02-05T18:33:17.680Z,1.20
2023-02-05T18:35:19.291Z,0.98
2023-02-05T18:37:21.042Z,1.63
2023-02-05T18:39:22.864Z,1.30
2023-02-05T18:41:26.284Z,1.30
2023-02-05T18:43:27.963Z,1.92
2023-02-05T18:45:29.641Z,1.20
2023-02-05T18:47:31.358Z,1.48
2023-02-05T18:49:33.979Z,1.40
2023-02-05T18:51:35.594Z,1.75
2023-02-05T18:53:40.605Z,2.28
2023-02-05T18:55:42.341Z,2.83
2023-02-05T18:57:43.960Z,2.75
2023-02-05T18:59:45.745Z,2.22
2023-02-05T19:01:51.400Z,2.20
2023-02-05T19:03:54.570Z,3.05
2023-02-05T19:05:56.161Z,3.15
2023-02-05T19:08:00.364Z,6.72
2023-02-05T19:10:02.559Z,3.70
2023-02-05T19:12:04.391Z,2.25
2023-02-05T19:14:08.312Z,2.88
2023-02-05T19:16:12.977Z,3.00
2023-02-05T19:18:14.682Z,2.35
2023-02-05T19:20:16.930Z,3.30
2023-02-05T19:22:18.554Z,2.75
2023-02-05T19:24:21.606Z,3.10
2023-02-05T19:26:26.655Z,2.30
2023-02-05T19:28:28.284Z,2.20
2023-02-05T19:30:29.971Z,2.80
2023-02-05T19:32:31.830Z,3.15
2023-02-05T19:34:40.210Z,2.80
2023-02-05T19:36:42.457Z,2.85
2023-02-05T19:38:44.115Z,3.17
2023-02-05T19:40:45.744Z,2.80
2023-02-05T19:42:48.794Z,2.97
2023-02-05T19:44:50.529Z,2.75
2023-02-05T19:46:52.204Z,2.63
2023-02-05T19:48:55.746Z,2.95
2023-02-05T19:51:03.397Z,3.22
2023-02-05T19:53:05.367Z,4.50
2023-02-05T19:55:07.236Z,3.20
2023-02-05T19:57:08.891Z,2.85
2023-02-05T19:59:11.175Z,2.20
2023-02-05T20:01:23.584Z,2.10
2023-02-05T20:03:28.436Z,2.47
2023-02-05T20:05:30.097Z,3.00
2023-02-05T20:07:33.853Z,2.45
2023-02-05T20:09:35.463Z,2.53
2023-02-05T20:11:38.764Z,3.10
2023-02-05T20:13:41.599Z,3.13
2023-02-05T20:15:43.213Z,3.75
2023-02-05T20:17:44.899Z,4.05
2023-02-05T20:19:46.521Z,3.65
2023-02-05T20:21:48.712Z,3.63
2023-02-05T20:23:51.702Z,3.67
2023-02-05T20:26:03.908Z,3.30
2023-02-05T20:28:05.714Z,3.47
2023-02-05T20:30:27.782Z,2.80
2023-02-05T20:32:29.554Z,3.25
2023-02-05T20:34:32.871Z,4.75
2023-02-05T20:36:36.811Z,2.90
2023-02-05T20:38:39.041Z,3.80
2023-02-05T20:40:40.753Z,5.40
2023-02-05T20:42:42.331Z,4.93
2023-02-05T20:44:44.041Z,4.05
2023-02-05T20:46:46.202Z,4.13
2023-02-05T20:48:48.527Z,3.65
2023-02-05T20:50:50.104Z,4.18
2023-02-05T20:52:51.686Z,3.63
2023-02-05T20:54:55.021Z,3.28
2023-02-05T20:56:59.278Z,3.13
2023-02-05T20:59:03.557Z,1.98
2023-02-05T21:01:24.171Z,2.28
2023-02-05T21:03:25.760Z,2.10
2023-02-05T21:05:27.450Z,2.05
2023-02-05T21:07:29.776Z,1.95
2023-02-05T21:09:31.512Z,1.60
2023-02-05T21:11:33.547Z,2.05
2023-02-05T21:13:35.481Z,1.48
2023-02-05T21:15:37.329Z,1.80
2023-02-05T21:17:38.962Z,1.83
2023-02-05T21:19:40.876Z,1.67
2023-02-05T21:21:42.583Z,1.88
2023-02-05T21:23:46.120Z,1.70
2023-02-05T21:25:48.180Z,1.55
2023-02-05T21:27:50.836Z,1.80
2023-02-05T21:29:52.580Z,1.65
2023-02-05T21:31:55.623Z,1.77
2023-02-05T21:33:58.093Z,2.15
2023-02-05T21:36:08.284Z,1.55
2023-02-05T21:38:09.928Z,1.90
2023-02-05T21:40:12.079Z,1.45
2023-02-05T21:42:13.819Z,2.42
2023-02-05T21:44:15.444Z,2.00
2023-02-05T21:46:17.312Z,2.13
2023-02-05T21:48:18.910Z,1.75
2023-02-05T21:50:20.688Z,1.42
2023-02-05T21:52:22.287Z,1.60
2023-02-05T21:54:25.718Z,1.55
2023-02-05T21:56:34.217Z,1.30
2023-02-05T21:58:37.263Z,1.58
2023-02-05T22:00:39.508Z,1.85
2023-02-05T22:02:41.170Z,1.23
2023-02-05T22:04:43.768Z,1.63
2023-02-05T22:06:45.434Z,1.50
2023-02-05T22:08:48.329Z,1.40
2023-02-05T22:10:49.910Z,2.15
2023-02-05T22:12:51.561Z,2.05
2023-02-05T22:14:53.163Z,1.77
2023-02-05T22:16:55.313Z,1.38
2023-02-05T22:18:57.833Z,1.88
2023-02-05T22:21:05.205Z,1.63
2023-02-05T22:23:06.793Z,1.77
2023-02-05T22:25:08.650Z,1.77
2023-02-05T22:27:10.370Z,1.85
2023-02-05T22:29:14.736Z,1.63
2023-02-05T22:31:19.355Z,1.80
2023-02-05T22:33:21.006Z,3.03
2023-02-05T22:35:22.638Z,2.90
2023-02-05T22:37:24.268Z,2.25
2023-02-05T22:39:25.871Z,2.30
2023-02-05T22:41:32.962Z,1.92
2023-02-05T22:43:34.818Z,1.63
2023-02-05T22:45:36.766Z,1.70
2023-02-05T22:47:38.679Z,1.83
2023-02-05T22:49:40.379Z,2.70
2023-02-05T22:51:42.125Z,3.38
2023-02-05T22:53:43.791Z,4.82
2023-02-05T22:55:45.518Z,4.25
2023-02-05T22:57:47.206Z,4.90
2023-02-05T22:59:48.828Z,4.82
2023-02-05T23:01:50.483Z,4.15
2023-02-05T23:03:52.860Z,5.07
2023-02-05T23:05:54.533Z,6.05
2023-02-05T23:07:56.126Z,6.78
2023-02-05T23:09:57.770Z,6.65
2023-02-05T23:11:59.611Z,8.60
2023-02-05T23:14:02.518Z,8.20
2023-02-05T23:16:19.396Z,8.73
2023-02-05T23:18:21.004Z,9.35
2023-02-05T23:20:22.719Z,7.32
2023-02-05T23:22:24.290Z,8.13
2023-02-05T23:24:25.924Z,8.18
2023-02-05T23:26:30.874Z,7.65
2023-02-05T23:28:32.486Z,8.20
2023-02-05T23:30:34.149Z,7.93
2023-02-05T23:32:35.769Z,8.02
2023-02-05T23:34:37.405Z,7.95
2023-02-05T23:36:39.498Z,7.95
2023-02-05T23:38:41.279Z,7.18
2023-02-05T23:40:42.915Z,7.07
2023-02-05T23:42:44.518Z,7.93
2023-02-05T23:44:46.105Z,6.93
2023-02-05T23:46:48.902Z,8.32
2023-02-05T23:48:50.575Z,7.78
2023-02-05T23:50:52.952Z,8.00
2023-02-05T23:52:54.564Z,8.77
2023-02-05T23:54:56.231Z,8.13
2023-02-05T23:56:57.867Z,7.47
2023-02-05T23:58:59.979Z,8.35
